Mason, South Dakota
Current Conditions -  °F | °C
As of 5:15 PM on Sunday 23 Nov 2014 (Local Time) from KSPF Reporting Station
Broken Clouds Broken Clouds  
Wind Chill: 21°   Ceiling: 4700
Heat Index: 32°   Visibility: 10mi
Dew Point: 21°   Wind: 17mph
Humidity: 64%   Direction: 300°WNW
Pressure: 29.75"   Gusts: 23mph
Location:  44.9293°N, 103.753°W
Report Text: KSPF 240015Z AUTO 30015G20KT 10SM BKN047 00/M06 A2975 RMK AO2
Loading
Personal Weather Stations






























Interactive Weather Map New forecast layout! Learn more

10-Day Weather Forecast

Advertisements
Track Severe Weather on mobile